Marble Falls' Hourly Summary for Friday, May 11, 2018
Hour Temp
(f)
RH
(%)
Solar Rad.
(MJ/m2)
Rainfall
(in)
Wind
(mph)
5/11/2018 12:00 AM 75 68 0 0 5.89
5/11/2018 1:00 AM 74 76 0 0 5.89
5/11/2018 2:00 AM 72 80 0 0 5.03
5/11/2018 3:00 AM 70 84 0 0 3.96
5/11/2018 4:00 AM 70 84 0 0 5.21
5/11/2018 5:00 AM 70 81 0 0 5.21
5/11/2018 6:00 AM 69 84 0 0 4.27
5/11/2018 7:00 AM 68 84 0.14 0 3.84
5/11/2018 8:00 AM 71 84 0.68 0 6.25
5/11/2018 9:00 AM 74 77 1.78 0 9.89
5/11/2018 10:00 AM 76 64 1.78 0 9.89
5/11/2018 11:00 AM 78 59 2.41 0 8.45
5/11/2018 12:00 PM 81 52 2.82 0 8.46
5/11/2018 1:00 PM 83 45 3.41 0 8.84
5/11/2018 2:00 PM 84 41 3.41 0 8.84
5/11/2018 3:00 PM 86 40 2.98 0 7.57
5/11/2018 4:00 PM 87 38 2.98 0 8.85
5/11/2018 5:00 PM 87 35 2.56 0 8.96
5/11/2018 6:00 PM 87 35 1.94 0 8.97
5/11/2018 7:00 PM 87 36 1.24 0 8.97
5/11/2018 8:00 PM 86 36 0.53 0 8.06
5/11/2018 9:00 PM 83 46 0.03 0 5.22
5/11/2018 10:00 PM 80 52 0 0 6.88
5/11/2018 11:00 PM 78 63 0 0 7.31
Data Summary 78 60 28.69 0.00 7.11